Time;durP1;ratioP1;P1;durP2;ratioP2;P2;SDS_P1;SDS_P2;PMS_P1;PMS_P2;Temp;Humidity;BMP_temperature;BMP_pressure;BME280_temperature;BME280_humidity;BME280_pressure;Samples;Min_cycle;Max_cycle;Signal;HPM_P1;HPM_P2
2022/07/02 00:00:15;;;;;;;3.75;1.40;;;;;;;30.22;37.09;100948.00;4935115;29;20487;-78
2022/07/02 00:02:45;;;;;;;1.63;1.42;;;;;;;30.14;35.38;100951.97;4932498;29;20087;-76
2022/07/02 00:05:15;;;;;;;1.58;1.35;;;;;;;30.02;35.02;100951.63;4927563;29;20118;-76
2022/07/02 00:07:43;;;;;;;1.55;1.20;;;;;;;29.87;34.92;100947.06;4932742;29;20131;-76
2022/07/02 00:10:12;;;;;;;1.50;1.20;;;;;;;29.82;36.65;100933.91;4932283;29;20550;-74
2022/07/02 00:12:43;;;;;;;1.70;1.30;;;;;;;29.87;37.90;100936.41;4929843;29;20047;-78
2022/07/02 00:15:12;;;;;;;1.40;1.30;;;;;;;29.95;37.41;100930.69;4929972;29;20052;-75
2022/07/02 00:17:41;;;;;;;1.20;1.10;;;;;;;29.98;36.48;100922.50;4927270;29;20051;-77
2022/07/02 00:20:11;;;;;;;3.42;1.30;;;;;;;30.06;36.02;100920.34;4933205;29;20044;-76
2022/07/02 00:22:41;;;;;;;2.10;1.42;;;;;;;30.13;35.04;100916.44;4928027;29;20076;-76
2022/07/02 00:25:10;;;;;;;3.85;1.30;;;;;;;30.08;34.66;100918.47;4932820;29;20051;-75
2022/07/02 00:27:41;;;;;;;1.40;1.30;;;;;;;30.09;36.59;100922.84;4928611;29;20692;-76
2022/07/02 00:30:14;;;;;;;2.17;1.02;;;;;;;30.13;36.24;100920.91;4935281;29;20523;-76
2022/07/02 00:32:45;;;;;;;5.53;1.42;;;;;;;30.15;35.18;100917.22;4930139;28;20608;-79
2022/07/02 00:35:14;;;;;;;1.40;1.30;;;;;;;30.15;35.99;100919.88;4934178;29;20205;-75
2022/07/02 00:37:42;;;;;;;1.88;1.20;;;;;;;30.13;35.31;100916.44;4942690;29;20286;-78
2022/07/02 00:40:11;;;;;;;2.60;1.50;;;;;;;30.10;36.07;100905.91;4932112;29;20044;-77
2022/07/02 00:42:40;;;;;;;3.28;1.00;;;;;;;30.02;35.60;100902.75;4931106;29;20106;-76
2022/07/02 00:45:09;;;;;;;1.52;1.23;;;;;;;29.88;34.58;100895.44;4932450;29;20051;-79
2022/07/02 00:47:41;;;;;;;1.42;1.13;;;;;;;29.84;34.45;100900.03;4928819;29;20384;-80
2022/07/02 00:50:10;;;;;;;2.45;1.25;;;;;;;29.82;34.19;100895.72;4922658;29;20103;-77
2022/07/02 00:52:39;;;;;;;1.35;1.10;;;;;;;29.82;35.62;100896.56;4929828;29;20051;-77
2022/07/02 00:55:08;;;;;;;1.40;1.17;;;;;;;29.79;34.55;100902.06;4929918;29;20051;-79
2022/07/02 00:57:37;;;;;;;1.38;1.10;;;;;;;29.75;35.12;100895.16;4928531;29;20048;-76
2022/07/02 01:00:08;;;;;;;1.70;1.38;;;;;;;29.74;34.43;100885.44;4936397;29;20457;-75
2022/07/02 01:02:40;;;;;;;2.22;1.33;;;;;;;29.73;33.73;100891.69;4934044;29;20126;-75
2022/07/02 01:05:09;;;;;;;1.42;1.00;;;;;;;29.75;33.21;100887.16;4940867;29;20070;-76
2022/07/02 01:07:38;;;;;;;1.80;1.10;;;;;;;29.74;33.05;100882.75;4930427;29;20059;-75
2022/07/02 01:10:17;;;;;;;3.33;1.30;;;;;;;29.74;33.63;100881.91;4928852;29;20098;-76
2022/07/02 01:12:47;;;;;;;2.15;1.20;;;;;;;29.70;32.82;100889.19;4926628;29;20054;-75
2022/07/02 01:15:16;;;;;;;1.77;1.05;;;;;;;29.63;33.95;100883.25;4924929;29;20055;-75
2022/07/02 01:17:46;;;;;;;1.45;1.30;;;;;;;29.54;31.75;100867.69;4930730;29;20095;-77
2022/07/02 01:20:15;;;;;;;1.33;1.00;;;;;;;29.48;33.89;100877.78;4930938;29;20062;-76
2022/07/02 01:22:45;;;;;;;1.92;1.35;;;;;;;29.51;34.37;100875.00;4929196;29;20411;-83
2022/07/02 01:25:14;;;;;;;1.95;1.23;;;;;;;29.54;34.33;100866.84;4927322;29;20512;-77
2022/07/02 01:27:42;;;;;;;1.95;1.40;;;;;;;29.52;33.37;100869.56;4932763;29;20653;-76
2022/07/02 01:30:12;;;;;;;1.80;1.42;;;;;;;29.56;32.61;100856.97;4932435;29;20487;-79
2022/07/02 01:32:40;;;;;;;2.60;2.08;;;;;;;29.58;32.11;100860.41;4925627;28;20060;-76
2022/07/02 01:35:10;;;;;;;3.22;1.70;;;;;;;29.57;31.58;100866.66;4931388;29;20047;-74
2022/07/02 01:37:40;;;;;;;1.70;1.40;;;;;;;29.56;32.10;100864.97;4929301;29;20058;-77
2022/07/02 01:40:11;;;;;;;1.63;1.10;;;;;;;29.55;33.96;100860.53;4924648;29;20125;-76
2022/07/02 01:42:40;;;;;;;1.95;1.40;;;;;;;29.54;34.57;100858.84;4928133;29;20570;-79
2022/07/02 01:45:10;;;;;;;1.42;1.33;;;;;;;29.48;33.46;100859.13;4933965;29;20056;-77
2022/07/02 01:47:38;;;;;;;1.60;1.50;;;;;;;29.42;32.08;100847.81;4933190;29;20786;-76
2022/07/02 01:50:07;;;;;;;1.70;1.23;;;;;;;29.42;32.51;100845.16;4935042;29;20048;-75
2022/07/02 01:52:36;;;;;;;2.70;1.55;;;;;;;29.40;32.95;100847.03;4934317;29;20047;-76
2022/07/02 01:55:05;;;;;;;1.95;1.27;;;;;;;29.35;31.88;100854.38;4936597;29;20047;-75
2022/07/02 01:57:37;;;;;;;1.85;1.50;;;;;;;29.27;33.44;100848.53;4933816;29;20050;-77
2022/07/02 02:00:07;;;;;;;1.60;1.42;;;;;;;29.15;33.30;100846.47;4941075;29;20137;-78
2022/07/02 02:02:35;;;;;;;1.27;1.15;;;;;;;29.02;31.54;100857.66;4942198;29;20044;-78
2022/07/02 02:05:04;;;;;;;1.52;1.20;;;;;;;28.94;32.98;100854.47;4933765;29;20055;-74
2022/07/02 02:07:33;;;;;;;2.40;1.50;;;;;;;28.88;32.85;100852.06;4932285;29;20699;-76
2022/07/02 02:10:01;;;;;;;1.30;1.20;;;;;;;28.85;34.54;100857.56;4934748;29;20087;-74
2022/07/02 02:12:30;;;;;;;1.70;1.30;;;;;;;28.81;34.08;100854.16;4932322;29;20040;-75
2022/07/02 02:15:00;;;;;;;2.47;1.60;;;;;;;28.76;33.61;100844.66;4934881;29;20051;-75
2022/07/02 02:17:29;;;;;;;3.13;1.40;;;;;;;28.71;32.49;100844.84;4936009;29;20047;-75
2022/07/02 02:19:57;;;;;;;2.70;1.60;;;;;;;28.67;34.50;100845.06;4934386;29;20052;-77
2022/07/02 02:22:26;;;;;;;1.70;1.60;;;;;;;28.61;34.10;100847.06;4932171;29;20047;-77
2022/07/02 02:24:54;;;;;;;2.53;1.48;;;;;;;28.55;32.84;100842.00;4934949;29;20166;-74
2022/07/02 02:27:23;;;;;;;2.67;1.73;;;;;;;28.47;32.89;100843.28;4932896;29;20111;-76
2022/07/02 02:29:51;;;;;;;3.92;1.38;;;;;;;28.39;33.53;100846.25;4930785;29;20096;-77
2022/07/02 02:32:21;;;;;;;1.70;1.60;;;;;;;28.27;34.05;100847.66;4929595;28;20109;-76
2022/07/02 02:34:50;;;;;;;5.57;1.50;;;;;;;28.24;35.59;100846.91;4925532;29;20119;-77
2022/07/02 02:37:18;;;;;;;1.90;1.70;;;;;;;28.20;34.38;100841.72;4933994;29;20047;-76
2022/07/02 02:39:47;;;;;;;1.73;1.40;;;;;;;28.14;34.83;100847.28;4928973;29;20107;-76
2022/07/02 02:42:15;;;;;;;3.10;1.52;;;;;;;28.07;34.98;100845.81;4923183;29;20107;-76
2022/07/02 02:44:44;;;;;;;2.42;1.70;;;;;;;27.96;33.29;100838.28;4933381;29;20053;-79
2022/07/02 02:47:12;;;;;;;4.72;1.42;;;;;;;27.85;34.04;100850.28;4928526;29;20047;-80
2022/07/02 02:49:42;;;;;;;1.83;1.63;;;;;;;27.71;34.36;100848.16;4926035;29;20048;-78
2022/07/02 02:52:11;;;;;;;2.75;1.50;;;;;;;27.59;34.92;100846.88;4920983;29;20119;-76
2022/07/02 02:54:39;;;;;;;1.73;1.10;;;;;;;27.50;35.33;100849.91;4925285;29;20040;-79
2022/07/02 02:57:08;;;;;;;1.45;1.02;;;;;;;27.39;35.35;100852.97;4928006;29;20124;-79
2022/07/02 02:59:36;;;;;;;1.55;1.20;;;;;;;27.31;36.54;100861.25;4932380;29;20048;-79
2022/07/02 03:02:05;;;;;;;3.08;1.33;;;;;;;27.18;35.67;100859.94;4927255;29;20058;-76
2022/07/02 03:04:34;;;;;;;1.85;1.20;;;;;;;27.06;36.49;100855.09;4927712;29;20061;-76
2022/07/02 03:07:04;;;;;;;1.38;1.10;;;;;;;26.95;36.97;100858.16;4933695;29;20110;-75
2022/07/02 03:09:33;;;;;;;1.15;1.05;;;;;;;26.84;37.65;100861.19;4940966;29;20040;-76
2022/07/02 03:12:01;;;;;;;1.90;1.13;;;;;;;26.74;37.62;100859.81;4929553;29;20510;-77
2022/07/02 03:14:30;;;;;;;1.58;1.20;;;;;;;26.64;38.08;100867.25;4934157;29;20490;-76
2022/07/02 03:16:58;;;;;;;2.83;1.40;;;;;;;26.54;37.96;100871.09;4926806;29;20494;-77
2022/07/02 03:19:27;;;;;;;2.67;1.17;;;;;;;26.45;38.27;100866.09;4930810;29;20052;-77
2022/07/02 03:21:55;;;;;;;1.50;1.20;;;;;;;26.37;39.20;100876.13;4930253;29;20107;-76
2022/07/02 03:24:25;;;;;;;2.70;1.33;;;;;;;26.25;39.17;100866.78;4931084;29;20055;-76
2022/07/02 03:26:54;;;;;;;2.03;1.20;;;;;;;26.12;38.81;100877.81;4931867;29;20052;-76
2022/07/02 03:29:22;;;;;;;1.52;1.10;;;;;;;25.99;39.57;100875.63;4932629;29;20521;-76
2022/07/02 03:31:51;;;;;;;3.40;1.25;;;;;;;25.85;39.18;100883.97;4915653;29;20040;-76
2022/07/02 03:34:19;;;;;;;2.10;1.10;;;;;;;25.75;39.62;100885.16;4924396;28;20558;-78
2022/07/02 03:36:48;;;;;;;3.97;1.13;;;;;;;25.58;38.91;100883.91;4918667;29;20116;-76
2022/07/02 03:39:16;;;;;;;3.58;1.30;;;;;;;25.44;38.69;100888.78;4932682;29;20699;-77
2022/07/02 03:41:46;;;;;;;1.35;1.10;;;;;;;25.34;39.61;100884.69;4928917;29;20052;-77
2022/07/02 03:44:15;;;;;;;2.92;1.35;;;;;;;25.22;40.46;100886.78;4934297;29;20043;-76
2022/07/02 03:46:43;;;;;;;2.85;1.30;;;;;;;25.10;40.31;100889.72;4933267;29;20375;-76
2022/07/02 03:49:12;;;;;;;1.45;1.20;;;;;;;24.99;40.23;100886.53;4934484;29;20683;-76
2022/07/02 03:51:40;;;;;;;4.43;1.25;;;;;;;24.85;40.85;100890.44;4932682;29;20068;-76
2022/07/02 03:54:09;;;;;;;1.55;1.10;;;;;;;24.70;41.91;100882.91;4930596;29;20051;-75
2022/07/02 03:56:37;;;;;;;1.27;1.10;;;;;;;24.58;41.52;100880.56;4930972;29;20098;-75
2022/07/02 03:59:08;;;;;;;1.40;1.00;;;;;;;24.43;41.72;100892.41;4933256;29;20567;-76
2022/07/02 04:01:36;;;;;;;2.00;0.90;;;;;;;24.24;42.32;100890.22;4937817;29;20505;-76
2022/07/02 04:04:05;;;;;;;1.80;1.25;;;;;;;24.09;43.06;100892.38;4931988;29;20465;-76
2022/07/02 04:06:33;;;;;;;4.13;1.20;;;;;;;24.00;43.94;100893.47;4927053;29;20048;-77
2022/07/02 04:09:02;;;;;;;1.38;1.10;;;;;;;23.80;45.06;100878.97;4926057;29;20513;-77
2022/07/02 04:11:30;;;;;;;1.40;1.02;;;;;;;23.79;44.55;100894.84;4917011;29;20052;-80
2022/07/02 04:13:59;;;;;;;2.13;1.20;;;;;;;23.70;44.70;100895.03;4926673;29;20040;-76
2022/07/02 04:16:29;;;;;;;1.40;0.98;;;;;;;23.62;45.75;100888.16;4931068;29;20043;-77
2022/07/02 04:18:58;;;;;;;2.22;1.02;;;;;;;23.55;45.77;100890.97;4931113;29;20115;-77
2022/07/02 04:21:26;;;;;;;1.98;0.98;;;;;;;23.38;45.05;100892.19;4931398;29;20047;-76
2022/07/02 04:23:55;;;;;;;2.03;1.10;;;;;;;23.27;45.67;100890.66;4930963;29;20051;-77
2022/07/02 04:26:23;;;;;;;2.17;1.33;;;;;;;23.10;46.65;100894.53;4930251;29;20111;-74
2022/07/02 04:28:52;;;;;;;1.60;1.30;;;;;;;23.04;47.15;100899.06;4929331;29;20490;-76
2022/07/02 04:31:20;;;;;;;1.27;1.10;;;;;;;22.99;46.99;100901.78;4937277;29;20074;-76
2022/07/02 04:33:51;;;;;;;2.38;1.40;;;;;;;22.93;46.66;100912.41;4933454;28;20052;-78
2022/07/02 04:36:19;;;;;;;1.67;1.00;;;;;;;22.83;45.88;100913.50;4931147;29;20044;-78
2022/07/02 04:38:48;;;;;;;1.95;1.20;;;;;;;22.78;48.04;100913.59;4924952;29;20498;-76
2022/07/02 04:41:16;;;;;;;2.83;1.10;;;;;;;22.66;47.95;100914.69;4931585;29;20055;-79
2022/07/02 04:43:45;;;;;;;1.60;1.20;;;;;;;22.57;48.21;100922.78;4933541;29;20103;-80
2022/07/02 04:46:13;;;;;;;1.20;1.10;;;;;;;22.52;46.92;100920.22;4932556;29;20120;-81
2022/07/02 04:48:42;;;;;;;2.83;1.27;;;;;;;22.49;46.18;100924.66;4932302;29;20506;-77
2022/07/02 04:51:18;;;;;;;1.92;1.00;;;;;;;22.45;46.63;100936.16;4935605;29;20594;-79
2022/07/02 04:53:47;;;;;;;1.85;1.00;;;;;;;22.35;46.52;100928.38;4933823;29;20056;-81
2022/07/02 04:56:15;;;;;;;2.33;1.10;;;;;;;22.27;46.92;100927.66;4933922;29;20052;-82
2022/07/02 04:58:44;;;;;;;1.08;0.90;;;;;;;22.20;46.57;100930.41;4931621;29;20107;-77
2022/07/02 05:01:12;;;;;;;2.20;1.08;;;;;;;22.14;46.47;100928.72;4935279;29;20051;-77
2022/07/02 05:03:41;;;;;;;1.33;0.95;;;;;;;22.07;46.79;100930.56;4938859;29;20048;-78
2022/07/02 05:06:09;;;;;;;1.60;1.05;;;;;;;22.00;46.55;100933.31;4929617;29;20107;-78
2022/07/02 05:08:39;;;;;;;2.70;1.02;;;;;;;21.88;46.56;100935.25;4931118;29;20064;-78
2022/07/02 05:11:08;;;;;;;2.97;1.00;;;;;;;21.80;46.99;100936.25;4927975;29;20051;-77
2022/07/02 05:13:37;;;;;;;1.20;0.90;;;;;;;21.72;46.80;100939.00;4927848;29;20526;-77
2022/07/02 05:16:06;;;;;;;5.63;1.30;;;;;;;21.65;46.77;100938.19;4921373;29;20079;-79
2022/07/02 05:18:43;;;;;;;1.33;0.90;;;;;;;21.57;47.86;100944.44;4930677;29;20056;-77
2022/07/02 05:21:11;;;;;;;1.65;1.10;;;;;;;21.47;47.22;100941.94;4922200;29;20048;-77
2022/07/02 05:23:42;;;;;;;1.67;1.10;;;;;;;21.41;47.44;100944.63;4927735;29;20047;-78
2022/07/02 05:26:11;;;;;;;1.30;1.02;;;;;;;21.31;47.99;100940.34;4928168;29;20613;-78
2022/07/02 05:28:39;;;;;;;1.88;1.10;;;;;;;21.22;48.11;100943.97;4927964;29;20052;-76
2022/07/02 05:31:08;;;;;;;1.40;1.10;;;;;;;21.13;48.58;100949.31;4923290;29;20063;-80
2022/07/02 05:33:43;;;;;;;1.40;1.00;;;;;;;21.02;48.51;100959.94;4933447;28;20120;-84
2022/07/02 05:36:11;;;;;;;1.40;0.90;;;;;;;20.93;48.38;100953.03;4924805;29;20553;-77
2022/07/02 05:38:41;;;;;;;1.75;1.10;;;;;;;20.87;48.54;100946.97;4925283;29;20048;-77
2022/07/02 05:41:10;;;;;;;1.95;1.17;;;;;;;20.79;48.73;100948.78;4929785;29;20063;-81
2022/07/02 05:43:39;;;;;;;2.53;1.20;;;;;;;20.71;49.27;100955.00;4931793;29;20059;-79
2022/07/02 05:46:07;;;;;;;1.05;0.90;;;;;;;20.60;48.99;100956.84;4930084;29;20114;-82
2022/07/02 05:48:37;;;;;;;1.23;1.02;;;;;;;20.49;48.57;100953.41;4930801;29;20494;-84
2022/07/02 05:51:05;;;;;;;1.05;0.90;;;;;;;20.37;49.83;100954.38;4931364;29;20043;-85
2022/07/02 05:53:34;;;;;;;1.73;0.90;;;;;;;20.28;48.98;100957.94;4927352;29;20124;-81
2022/07/02 05:56:04;;;;;;;2.45;1.15;;;;;;;20.17;49.77;100959.78;4931324;29;20055;-79
2022/07/02 05:58:33;;;;;;;2.17;0.93;;;;;;;20.06;49.33;100961.59;4925595;29;20055;-79
2022/07/02 06:01:01;;;;;;;0.80;0.80;;;;;;;19.98;49.97;100963.41;4935992;29;20106;-79
2022/07/02 06:03:30;;;;;;;1.35;1.00;;;;;;;19.88;50.63;100968.72;4926523;29;20099;-79
2022/07/02 06:08:43;;;;;;;2.20;0.82;;;;;;;19.65;51.23;100970.53;4925124;29;20067;-82
2022/07/02 06:11:14;;;;;;;1.20;1.10;;;;;;;19.56;50.80;100965.31;4931329;29;20031;-75
2022/07/02 06:13:42;;;;;;;1.20;0.98;;;;;;;19.50;50.49;100966.25;4919812;29;20490;-76
2022/07/02 06:16:11;;;;;;;2.33;1.00;;;;;;;19.46;50.34;100970.63;4923356;29;20058;-76
2022/07/02 06:18:39;;;;;;;2.15;0.90;;;;;;;19.40;50.76;100975.91;4920948;29;20044;-77
2022/07/02 06:21:08;;;;;;;1.35;1.05;;;;;;;19.37;50.76;100967.16;4923199;29;20056;-76
2022/07/02 06:23:36;;;;;;;1.67;1.02;;;;;;;19.34;51.60;100968.03;4920577;29;20048;-76
2022/07/02 06:26:05;;;;;;;1.40;1.00;;;;;;;19.29;51.25;100977.69;4927177;29;20067;-76
2022/07/02 06:28:35;;;;;;;1.30;0.90;;;;;;;19.25;51.29;100968.94;4927071;29;20055;-76
2022/07/02 06:31:03;;;;;;;1.23;1.00;;;;;;;19.25;51.44;100978.56;4928492;29;20052;-75
2022/07/02 06:33:39;;;;;;;0.90;0.80;;;;;;;19.23;52.07;100988.19;4935523;28;20058;-77
2022/07/02 06:36:14;;;;;;;1.38;0.98;;;;;;;19.18;51.74;100982.94;4934499;29;20731;-77
2022/07/02 06:38:42;;;;;;;1.00;0.90;;;;;;;19.13;54.04;100982.09;4929793;29;20040;-76
2022/07/02 06:44:00;;;;;;;5.82;1.30;;;;;;;19.01;52.83;100983.00;4910748;29;20056;-76
2022/07/02 06:46:29;;;;;;;1.00;0.90;;;;;;;18.97;54.13;100981.25;4932377;29;20103;-76
2022/07/02 06:48:57;;;;;;;1.52;1.00;;;;;;;18.92;53.94;100988.25;4928148;29;20099;-75
2022/07/02 06:51:26;;;;;;;2.20;0.93;;;;;;;18.85;54.84;100981.25;4925753;29;20048;-74
2022/07/02 06:54:00;;;;;;;1.23;1.00;;;;;;;18.84;54.75;100992.63;4928276;29;20106;-75
2022/07/02 06:56:32;;;;;;;1.38;0.90;;;;;;;18.79;54.99;100986.50;4936936;29;20047;-77
2022/07/02 06:59:02;;;;;;;1.65;0.90;;;;;;;18.72;55.28;100989.97;4933589;29;20047;-76
2022/07/02 07:01:30;;;;;;;3.72;1.00;;;;;;;18.68;55.47;100985.59;4934123;29;20052;-76
2022/07/02 07:03:59;;;;;;;1.30;0.90;;;;;;;18.61;55.73;100992.59;4933733;29;20122;-76
2022/07/02 07:06:27;;;;;;;2.33;1.02;;;;;;;18.54;55.22;100996.94;4919235;29;20061;-75
2022/07/02 07:08:56;;;;;;;1.15;1.00;;;;;;;18.50;55.68;100995.19;4930710;29;20463;-76
2022/07/02 07:11:25;;;;;;;1.77;1.00;;;;;;;18.46;55.77;100992.56;4923985;29;20485;-74
2022/07/02 07:13:53;;;;;;;1.27;1.08;;;;;;;18.38;55.95;100989.97;4933229;29;20047;-75
2022/07/02 07:16:23;;;;;;;1.10;0.90;;;;;;;18.30;56.05;100987.34;4932376;29;20494;-76
2022/07/02 07:18:53;;;;;;;1.58;0.90;;;;;;;18.26;56.01;100988.19;4932821;29;20056;-74
2022/07/02 07:21:21;;;;;;;1.70;1.00;;;;;;;18.23;56.26;100987.31;4931542;29;20131;-75
2022/07/02 07:23:50;;;;;;;2.08;1.00;;;;;;;18.17;56.93;100991.66;4931490;29;20055;-75
2022/07/02 07:26:19;;;;;;;1.20;1.10;;;;;;;18.13;56.70;100989.03;4934192;29;20136;-75
2022/07/02 07:28:47;;;;;;;1.30;1.10;;;;;;;18.09;57.29;100996.00;4942042;29;20055;-75
2022/07/02 07:31:19;;;;;;;1.23;0.90;;;;;;;18.04;57.39;100995.13;4934858;29;20514;-73
2022/07/02 07:33:50;;;;;;;1.25;0.95;;;;;;;17.98;57.11;100997.72;4926316;28;20060;-74
2022/07/02 07:36:20;;;;;;;1.23;0.90;;;;;;;17.92;57.78;100997.72;4912617;29;20479;-76
2022/07/02 07:38:50;;;;;;;1.13;0.90;;;;;;;17.88;57.68;100998.56;4916951;29;20056;-75
2022/07/02 07:41:19;;;;;;;1.65;1.10;;;;;;;17.84;57.01;100996.81;4911833;29;20048;-76
2022/07/02 07:43:49;;;;;;;2.13;1.20;;;;;;;17.79;57.62;100996.75;4917843;29;20051;-75
2022/07/02 07:46:17;;;;;;;1.30;1.00;;;;;;;17.76;57.53;100995.00;4907161;29;20048;-76
2022/07/02 07:48:46;;;;;;;1.60;1.10;;;;;;;17.71;57.49;100986.28;4914271;29;20056;-75
2022/07/02 07:51:16;;;;;;;2.15;1.05;;;;;;;17.65;57.73;100986.22;4911478;29;20202;-76
2022/07/02 07:53:52;;;;;;;2.38;1.10;;;;;;;17.58;57.71;100980.09;4905948;29;20414;-76
2022/07/02 07:56:21;;;;;;;1.05;0.90;;;;;;;17.54;58.15;100983.56;4913794;29;20055;-76
2022/07/02 07:58:50;;;;;;;1.27;0.98;;;;;;;17.50;58.08;100991.38;4923362;29;20072;-76
2022/07/02 08:01:18;;;;;;;2.42;1.00;;;;;;;17.47;58.60;100994.00;4925682;29;20103;-76
2022/07/02 08:03:47;;;;;;;1.05;0.95;;;;;;;17.43;58.83;100998.38;4922408;29;20056;-76
2022/07/02 08:06:17;;;;;;;1.52;0.82;;;;;;;17.37;58.63;101001.81;4913759;29;20050;-76
2022/07/02 08:08:45;;;;;;;1.48;1.00;;;;;;;17.34;59.65;101001.78;4914169;29;20179;-75
2022/07/02 08:11:14;;;;;;;1.58;0.90;;;;;;;17.31;59.83;100999.16;4910878;29;20524;-77
2022/07/02 08:13:42;;;;;;;2.75;1.17;;;;;;;17.26;59.63;100997.38;4911315;29;20175;-75
2022/07/02 08:16:11;;;;;;;1.77;1.02;;;;;;;17.22;59.82;101001.69;4911187;29;20044;-76
2022/07/02 08:18:39;;;;;;;1.65;1.00;;;;;;;17.17;60.00;100998.19;4912104;29;20187;-77
2022/07/02 08:21:08;;;;;;;1.38;1.00;;;;;;;17.13;60.50;101001.66;4916656;29;20091;-76
2022/07/02 08:23:38;;;;;;;2.08;1.02;;;;;;;17.07;59.57;100988.56;4911475;29;20052;-75
2022/07/02 08:26:06;;;;;;;2.55;1.30;;;;;;;17.02;60.59;100991.13;4915815;29;20060;-75
2022/07/02 08:28:35;;;;;;;2.97;1.27;;;;;;;16.99;60.68;100995.47;4917272;29;20116;-74
2022/07/02 08:31:04;;;;;;;1.83;1.35;;;;;;;16.94;60.38;100985.84;4904230;29;20048;-74
2022/07/02 08:33:32;;;;;;;1.30;0.90;;;;;;;16.91;60.37;100996.28;4919161;28;20517;-75
2022/07/02 08:36:01;;;;;;;1.30;1.20;;;;;;;16.88;60.64;100993.66;4929086;29;20044;-75
2022/07/02 08:38:29;;;;;;;1.75;0.93;;;;;;;16.85;60.31;100995.34;4929847;29;20048;-75
2022/07/02 08:41:00;;;;;;;2.08;1.15;;;;;;;16.80;60.87;100989.22;4931627;29;20980;-74
2022/07/02 08:43:30;;;;;;;3.53;1.10;;;;;;;16.77;61.49;100997.91;4932564;29;20107;-74
2022/07/02 08:46:02;;;;;;;1.88;1.13;;;;;;;16.70;61.83;100996.09;4932367;29;20513;-76
2022/07/02 08:48:33;;;;;;;1.33;1.20;;;;;;;16.66;62.38;100994.31;4932913;29;20048;-76
2022/07/02 08:51:03;;;;;;;1.33;1.08;;;;;;;16.59;62.24;100995.13;4918765;29;20119;-77
2022/07/02 08:53:31;;;;;;;1.67;1.02;;;;;;;16.57;62.33;100999.47;4922537;29;20048;-76
2022/07/02 08:56:02;;;;;;;1.55;1.17;;;;;;;16.54;62.23;101001.19;4930513;29;20047;-76
2022/07/02 08:58:31;;;;;;;1.50;1.10;;;;;;;16.52;62.72;101002.91;4922145;29;20486;-76
2022/07/02 09:00:59;;;;;;;1.63;1.10;;;;;;;16.49;62.97;100989.81;4930934;29;20055;-76
2022/07/02 09:03:28;;;;;;;1.10;1.00;;;;;;;16.47;63.21;100995.88;4931640;29;20430;-75
2022/07/02 09:05:57;;;;;;;1.80;1.15;;;;;;;16.45;63.56;101001.09;4930887;29;20052;-74
2022/07/02 09:08:27;;;;;;;2.15;1.23;;;;;;;16.41;63.53;101004.53;4931369;29;20526;-76
2022/07/02 09:10:56;;;;;;;2.05;1.30;;;;;;;16.35;64.22;100999.25;4929749;29;20055;-75
2022/07/02 09:13:28;;;;;;;1.35;0.90;;;;;;;16.30;64.14;101001.81;4930896;29;20044;-75
2022/07/02 09:15:57;;;;;;;1.30;1.00;;;;;;;16.26;65.31;101001.75;4930305;29;20059;-74
2022/07/02 09:18:25;;;;;;;1.38;0.90;;;;;;;16.23;65.57;101000.00;4932123;29;20052;-74
2022/07/02 09:20:54;;;;;;;1.67;1.25;;;;;;;16.22;65.72;100997.41;4934020;29;20048;-75
2022/07/02 09:23:24;;;;;;;2.33;1.00;;;;;;;16.19;65.25;100997.34;4931838;29;20083;-75
2022/07/02 09:25:53;;;;;;;1.83;1.40;;;;;;;16.17;66.45;100996.44;4930469;29;20047;-76
2022/07/02 09:28:22;;;;;;;1.38;1.10;;;;;;;16.15;65.58;100992.94;4927663;29;20051;-76
2022/07/02 09:30:52;;;;;;;2.22;1.27;;;;;;;16.13;66.70;100998.16;4934605;29;20490;-76
2022/07/02 09:33:31;;;;;;;1.63;0.82;;;;;;;16.10;66.26;100992.91;4921585;28;20774;-75
2022/07/02 09:36:00;;;;;;;1.17;0.98;;;;;;;16.03;66.95;100991.94;4929326;29;20046;-74
2022/07/02 09:38:29;;;;;;;1.95;1.10;;;;;;;15.99;67.31;100987.59;4935088;29;20051;-75
2022/07/02 09:41:01;;;;;;;2.00;1.45;;;;;;;15.96;67.05;100992.75;4929508;29;20106;-75
2022/07/02 09:43:31;;;;;;;2.10;1.13;;;;;;;15.94;66.76;100994.47;4933125;29;20115;-75
2022/07/02 09:46:03;;;;;;;1.70;1.23;;;;;;;15.88;67.80;100994.41;4930597;29;20059;-75
2022/07/02 09:48:31;;;;;;;1.65;1.10;;;;;;;15.81;68.74;100993.47;4931680;29;20107;-75
2022/07/02 09:51:05;;;;;;;2.33;1.30;;;;;;;15.77;68.63;100988.19;4939630;29;20054;-76
2022/07/02 09:53:34;;;;;;;1.65;1.23;;;;;;;15.74;69.35;100982.94;4931889;29;20044;-74
2022/07/02 09:56:06;;;;;;;2.78;1.20;;;;;;;15.72;68.86;100988.13;4921517;29;20131;-74
2022/07/02 09:58:35;;;;;;;3.70;1.10;;;;;;;15.67;69.38;100981.97;4916664;29;20581;-74
2022/07/02 10:01:05;;;;;;;2.00;1.33;;;;;;;15.63;70.93;100986.25;4934763;29;20120;-76
2022/07/02 10:03:46;;;;;;;1.58;1.10;;;;;;;15.62;71.02;100988.81;4918509;29;20099;-74
2022/07/02 10:06:15;;;;;;;4.68;1.20;;;;;;;15.59;71.00;100984.44;4922868;29;20077;-74
2022/07/02 10:08:44;;;;;;;3.20;1.77;;;;;;;15.56;70.92;100979.22;4920648;29;20131;-75
2022/07/02 10:11:15;;;;;;;1.58;1.25;;;;;;;15.56;70.69;100978.34;4927583;29;20039;-75
2022/07/02 10:13:44;;;;;;;2.15;1.30;;;;;;;15.54;71.09;100983.53;4922243;29;20513;-76
2022/07/02 10:16:17;;;;;;;2.80;1.27;;;;;;;15.50;72.03;100990.41;4930882;29;20047;-76
2022/07/02 10:18:46;;;;;;;2.08;1.63;;;;;;;15.47;71.63;100985.19;4929613;29;20083;-76
2022/07/02 10:21:17;;;;;;;1.67;1.33;;;;;;;15.48;72.16;100980.81;4934437;29;20048;-75
2022/07/02 10:23:47;;;;;;;2.92;1.50;;;;;;;15.48;72.02;100970.41;4935136;29;20538;-75
2022/07/02 10:26:16;;;;;;;2.30;1.42;;;;;;;15.48;72.78;100978.22;4932783;29;20080;-75
2022/07/02 10:28:45;;;;;;;3.15;1.45;;;;;;;15.45;72.31;100975.59;4930355;29;20055;-76
2022/07/02 10:31:19;;;;;;;1.85;1.30;;;;;;;15.44;72.72;100976.44;4932253;29;20107;-75
2022/07/02 10:33:55;;;;;;;3.40;1.38;;;;;;;15.29;73.59;100964.06;4948042;28;20473;-74
2022/07/02 10:36:24;;;;;;;1.90;1.33;;;;;;;15.40;73.77;100982.47;4946467;29;20043;-75
2022/07/02 10:39:01;;;;;;;3.10;1.52;;;;;;;15.37;74.00;100977.19;4932817;29;20091;-75
2022/07/02 10:41:31;;;;;;;2.78;1.40;;;;;;;15.33;73.56;100972.81;4937238;29;20106;-75
2022/07/02 10:44:01;;;;;;;2.25;1.17;;;;;;;15.30;74.15;100981.44;4931531;29;20442;-74
2022/07/02 10:46:36;;;;;;;2.15;1.55;;;;;;;15.28;74.58;100981.44;4931116;29;20059;-74
2022/07/02 10:49:06;;;;;;;3.40;1.38;;;;;;;15.27;74.40;100978.81;4940404;29;20114;-72
2022/07/02 10:51:38;;;;;;;1.90;1.30;;;;;;;15.26;74.70;100977.94;4945110;29;20160;-74
2022/07/02 10:54:08;;;;;;;2.20;1.23;;;;;;;15.24;75.15;100977.03;4934086;29;20048;-75
2022/07/02 10:56:46;;;;;;;2.92;1.40;;;;;;;15.21;75.27;100970.91;4932653;29;20133;-74
2022/07/02 10:59:24;;;;;;;1.83;1.27;;;;;;;15.10;75.23;100978.59;4934707;29;20051;-75
2022/07/02 11:02:05;;;;;;;7.68;1.95;;;;;;;14.97;75.95;100977.53;4925418;29;20062;-75
2022/07/02 11:04:34;;;;;;;3.00;1.63;;;;;;;14.86;76.35;100979.94;4933955;29;20506;-74
2022/07/02 11:07:08;;;;;;;2.30;1.52;;;;;;;14.78;77.11;100973.75;4940708;29;20095;-75
2022/07/02 11:09:48;;;;;;;1.65;1.20;;;;;;;14.71;76.71;100974.53;4934467;29;20131;-74
2022/07/02 11:12:22;;;;;;;2.03;1.48;;;;;;;14.66;77.14;100970.97;4931867;29;20052;-74
2022/07/02 11:14:58;;;;;;;2.85;1.60;;;;;;;14.58;78.67;100977.78;4932879;29;20051;-75
2022/07/02 11:17:29;;;;;;;2.92;1.52;;;;;;;14.51;78.88;100984.56;4933793;29;20051;-75
2022/07/02 11:19:58;;;;;;;3.00;1.90;;;;;;;14.45;78.83;100982.75;4933441;29;20044;-75
2022/07/02 11:22:32;;;;;;;1.52;1.25;;;;;;;14.39;78.74;100989.56;4924042;29;20369;-75
2022/07/02 11:25:01;;;;;;;5.38;1.40;;;;;;;14.36;78.97;100987.78;4932673;29;20043;-75
2022/07/02 11:27:30;;;;;;;2.50;1.33;;;;;;;14.36;78.79;100987.78;4933417;29;20059;-75
2022/07/02 11:30:00;;;;;;;1.55;1.23;;;;;;;14.36;78.46;100985.19;4927821;29;20047;-74
2022/07/02 11:32:38;;;;;;;1.98;1.40;;;;;;;14.35;78.54;100986.03;4934209;29;20046;-74
2022/07/02 11:35:08;;;;;;;1.98;1.23;;;;;;;14.33;78.45;100990.31;4932316;28;20050;-74
2022/07/02 11:37:36;;;;;;;2.53;1.17;;;;;;;14.32;78.26;100985.97;4934444;29;20104;-75
2022/07/02 11:40:05;;;;;;;2.92;1.33;;;;;;;14.34;78.71;100989.50;4925051;29;20486;-74